Time;durP1;ratioP1;P1;durP2;ratioP2;P2;SDS_P1;SDS_P2;PMS_P1;PMS_P2;Temp;Humidity;BMP_temperature;BMP_pressure;BME280_temperature;BME280_humidity;BME280_pressure;Samples;Min_cycle;Max_cycle;Signal;HPM_P1;HPM_P2
2022/04/28 00:00:02;;;;;;;5.05;3.47;;;;;;;;;;4974466;28;20500;-73
2022/04/28 00:02:28;;;;;;;7.03;3.63;;;;;;;;;;4974500;28;20472;-73
2022/04/28 00:04:55;;;;;;;6.43;3.55;;;;;;;;;;4974119;28;20027;-73
2022/04/28 00:07:22;;;;;;;8.20;3.50;;;;;;;;;;4975820;28;20022;-73
2022/04/28 00:09:48;;;;;;;6.53;3.70;;;;;;;;;;4971773;28;20034;-73
2022/04/28 00:12:15;;;;;;;8.02;3.78;;;;;;;;;;4971204;28;20480;-73
2022/04/28 00:14:43;;;;;;;7.30;3.70;;;;;;;;;;4971051;28;20039;-73
2022/04/28 00:17:10;;;;;;;7.38;4.00;;;;;;;;;;4973253;28;20469;-73
2022/04/28 00:19:36;;;;;;;5.53;3.65;;;;;;;;;;4973542;28;20039;-73
2022/04/28 00:22:03;;;;;;;8.75;4.28;;;;;;;;;;4976088;28;20033;-73
2022/04/28 00:24:29;;;;;;;7.40;3.60;;;;;;;;;;4974033;28;20029;-73
2022/04/28 00:26:56;;;;;;;4.82;3.45;;;;;;;;;;4973883;28;20026;-73
2022/04/28 00:29:22;;;;;;;9.02;4.03;;;;;;;;;;4973939;28;20037;-73
2022/04/28 00:31:49;;;;;;;7.47;4.03;;;;;;;;;;4958534;28;20378;-73
2022/04/28 00:34:15;;;;;;;6.80;3.83;;;;;;;;;;4975496;28;20037;-73
2022/04/28 00:36:41;;;;;;;6.32;3.95;;;;;;;;;;4974002;28;20022;-73
2022/04/28 00:39:08;;;;;;;6.68;3.58;;;;;;;;;;4974000;28;20034;-73
2022/04/28 00:41:34;;;;;;;5.57;3.67;;;;;;;;;;4973675;28;20081;-73
2022/04/28 00:44:00;;;;;;;6.13;3.92;;;;;;;;;;4973660;28;20037;-73
2022/04/28 00:46:27;;;;;;;7.18;4.10;;;;;;;;;;4973385;28;20042;-73
2022/04/28 00:51:40;;;;;;;4.47;3.53;;;;;;;;;;4973443;28;20385;-73
2022/04/28 00:54:06;;;;;;;4.55;3.33;;;;;;;;;;4981562;28;20388;-73
2022/04/28 00:56:32;;;;;;;7.65;4.07;;;;;;;;;;4970652;28;20033;-73
2022/04/28 00:59:02;;;;;;;4.88;3.75;;;;;;;;;;4971371;28;20030;-73
2022/04/28 01:01:33;;;;;;;6.20;3.63;;;;;;;;;;4986929;28;20031;-73
2022/04/28 01:03:59;;;;;;;6.97;3.73;;;;;;;;;;4974635;28;20031;-73
2022/04/28 01:06:26;;;;;;;7.50;3.75;;;;;;;;;;4973490;28;20258;-73
2022/04/28 01:08:52;;;;;;;9.13;3.50;;;;;;;;;;4973069;28;20041;-73
2022/04/28 01:11:19;;;;;;;4.03;3.10;;;;;;;;;;4973517;28;20026;-73
2022/04/28 01:13:46;;;;;;;7.28;3.38;;;;;;;;;;4973107;28;20496;-73
2022/04/28 01:16:13;;;;;;;7.25;3.47;;;;;;;;;;4974821;28;20035;-73
2022/04/28 01:18:40;;;;;;;5.35;3.17;;;;;;;;;;4972870;28;20022;-73
2022/04/28 01:21:07;;;;;;;9.13;3.78;;;;;;;;;;4972934;28;20033;-73
2022/04/28 01:23:34;;;;;;;4.55;3.38;;;;;;;;;;4973139;28;20033;-73
2022/04/28 01:26:00;;;;;;;8.35;3.67;;;;;;;;;;4987851;28;20023;-73
2022/04/28 01:28:27;;;;;;;5.88;3.55;;;;;;;;;;4974136;28;20023;-73
2022/04/28 01:30:53;;;;;;;6.00;3.70;;;;;;;;;;4974403;28;20046;-73
2022/04/28 01:33:20;;;;;;;5.18;3.72;;;;;;;;;;4972492;28;20521;-73
2022/04/28 01:35:46;;;;;;;6.50;3.35;;;;;;;;;;4983203;28;20508;-73
2022/04/28 01:38:13;;;;;;;5.43;3.45;;;;;;;;;;4971180;28;20019;-73
2022/04/28 01:40:39;;;;;;;4.38;2.85;;;;;;;;;;4971583;28;20030;-73
2022/04/28 01:43:06;;;;;;;4.88;3.17;;;;;;;;;;4974390;28;20027;-73
2022/04/28 01:45:32;;;;;;;4.50;3.20;;;;;;;;;;4972178;28;20057;-73
2022/04/28 01:47:58;;;;;;;8.25;3.17;;;;;;;;;;4972211;28;20031;-73
2022/04/28 01:50:25;;;;;;;5.53;3.75;;;;;;;;;;4972405;28;20627;-73
2022/04/28 01:55:36;;;;;;;4.57;3.20;;;;;;;;;;4972305;28;20447;-73
2022/04/28 01:58:02;;;;;;;5.32;3.45;;;;;;;;;;4974066;28;20033;-73
2022/04/28 02:00:29;;;;;;;4.50;3.10;;;;;;;;;;4972231;28;20037;-73
2022/04/28 02:02:56;;;;;;;7.40;3.33;;;;;;;;;;4972139;28;20508;-73
2022/04/28 02:05:22;;;;;;;8.00;3.22;;;;;;;;;;4972382;28;20026;-72
2022/04/28 02:07:48;;;;;;;3.92;3.40;;;;;;;;;;4972377;28;20035;-73
2022/04/28 02:10:14;;;;;;;5.03;3.60;;;;;;;;;;4973622;28;20043;-73
2022/04/28 02:12:41;;;;;;;4.45;3.53;;;;;;;;;;4972108;28;20100;-73
2022/04/28 02:15:07;;;;;;;8.68;3.35;;;;;;;;;;4971628;28;20019;-72
2022/04/28 02:17:35;;;;;;;5.22;3.25;;;;;;;;;;4971873;28;20039;-73
2022/04/28 02:20:20;;;;;;;8.30;3.42;;;;;;;;;;4972160;28;20439;-73
2022/04/28 02:22:46;;;;;;;6.80;3.17;;;;;;;;;;4972126;28;20025;-73
2022/04/28 02:25:12;;;;;;;8.77;3.95;;;;;;;;;;4973540;28;20431;-73
2022/04/28 02:27:38;;;;;;;3.72;2.80;;;;;;;;;;4971674;28;20030;-73
2022/04/28 02:30:06;;;;;;;9.48;3.97;;;;;;;;;;4971362;28;20031;-73
2022/04/28 02:33:08;;;;;;;6.40;3.47;;;;;;;;;;4971939;28;20022;-72
2022/04/28 02:35:18;;;;;;;6.38;3.70;;;;;;;;;;4971671;28;20022;-73
2022/04/28 02:37:45;;;;;;;6.53;3.83;;;;;;;;;;4971676;28;20025;-73
2022/04/28 02:40:11;;;;;;;6.57;3.45;;;;;;;;;;4973990;28;20026;-73
2022/04/28 02:42:37;;;;;;;5.90;3.45;;;;;;;;;;4981986;28;20029;-73
2022/04/28 02:45:04;;;;;;;7.22;3.25;;;;;;;;;;4967956;28;20047;-73
2022/04/28 02:47:30;;;;;;;8.75;3.60;;;;;;;;;;4987614;28;20031;-73
2022/04/28 02:49:56;;;;;;;7.20;3.88;;;;;;;;;;4971550;28;20035;-73
2022/04/28 02:52:23;;;;;;;5.18;3.65;;;;;;;;;;4972771;28;20381;-73
2022/04/28 02:54:49;;;;;;;7.25;3.83;;;;;;;;;;4971855;28;20039;-73
2022/04/28 02:57:15;;;;;;;6.28;3.30;;;;;;;;;;4971490;28;20023;-73
2022/04/28 02:59:42;;;;;;;6.07;3.63;;;;;;;;;;4970929;28;20373;-73
2022/04/28 03:02:08;;;;;;;5.10;2.97;;;;;;;;;;4971361;28;20015;-73
2022/04/28 03:04:34;;;;;;;4.65;3.40;;;;;;;;;;4971510;28;20041;-73
2022/04/28 03:12:31;;;;;;;5.43;3.25;;;;;;;;;;4968235;28;20023;-73
2022/04/28 03:14:57;;;;;;;6.90;3.55;;;;;;;;;;4967928;28;20034;-73
2022/04/28 03:17:24;;;;;;;4.88;2.90;;;;;;;;;;4971325;28;20027;-73
2022/04/28 03:19:50;;;;;;;4.35;3.13;;;;;;;;;;4971169;28;20034;-73
2022/04/28 03:22:16;;;;;;;3.97;2.88;;;;;;;;;;4975178;28;20023;-73
2022/04/28 03:24:43;;;;;;;6.35;3.40;;;;;;;;;;4974942;28;20512;-73
2022/04/28 03:27:09;;;;;;;9.05;3.60;;;;;;;;;;4974980;28;20492;-73
2022/04/28 03:29:37;;;;;;;4.28;3.15;;;;;;;;;;4974571;28;20045;-73
2022/04/28 03:32:04;;;;;;;3.45;2.70;;;;;;;;;;4975071;28;20029;-73
2022/04/28 03:34:31;;;;;;;6.18;2.92;;;;;;;;;;4975581;28;20034;-73
2022/04/28 03:36:57;;;;;;;4.60;3.00;;;;;;;;;;4976252;28;20042;-73
2022/04/28 03:39:23;;;;;;;3.95;3.30;;;;;;;;;;4974690;28;20019;-73
2022/04/28 03:41:50;;;;;;;5.10;3.08;;;;;;;;;;4974748;28;20042;-73
2022/04/28 03:44:16;;;;;;;4.13;3.47;;;;;;;;;;4974891;28;20029;-72
2022/04/28 03:46:42;;;;;;;5.25;3.20;;;;;;;;;;4974651;28;20418;-73
2022/04/28 03:49:09;;;;;;;7.70;3.45;;;;;;;;;;4976540;28;20047;-73
2022/04/28 03:51:35;;;;;;;6.55;3.42;;;;;;;;;;4974484;28;20431;-73
2022/04/28 03:54:01;;;;;;;5.95;3.25;;;;;;;;;;4974520;28;20023;-73
2022/04/28 03:56:31;;;;;;;5.38;3.60;;;;;;;;;;4974146;28;20489;-73
2022/04/28 03:58:58;;;;;;;7.90;2.97;;;;;;;;;;4974502;28;20023;-73
2022/04/28 04:01:24;;;;;;;6.15;3.40;;;;;;;;;;4975833;28;20080;-73
2022/04/28 04:03:51;;;;;;;4.47;3.33;;;;;;;;;;4976149;28;20399;-73
2022/04/28 04:06:17;;;;;;;3.88;3.10;;;;;;;;;;4974219;28;20023;-73
2022/04/28 04:08:45;;;;;;;5.38;3.65;;;;;;;;;;4974150;28;20026;-73
2022/04/28 04:11:12;;;;;;;5.45;3.47;;;;;;;;;;4974054;28;20033;-73
2022/04/28 04:13:38;;;;;;;4.78;3.58;;;;;;;;;;4974439;28;20034;-73
2022/04/28 04:16:05;;;;;;;6.25;3.50;;;;;;;;;;4975997;28;20224;-73
2022/04/28 04:18:31;;;;;;;8.15;3.40;;;;;;;;;;4974123;28;20395;-72
2022/04/28 04:20:58;;;;;;;4.75;3.58;;;;;;;;;;4974269;28;20027;-73
2022/04/28 04:23:24;;;;;;;8.88;3.67;;;;;;;;;;4973944;28;20480;-73
2022/04/28 04:25:51;;;;;;;6.78;3.30;;;;;;;;;;4973716;28;20031;-73
2022/04/28 04:28:17;;;;;;;4.35;3.78;;;;;;;;;;4976149;28;20026;-73
2022/04/28 04:33:28;;;;;;;6.00;3.42;;;;;;;;;;4972449;28;20018;-73
2022/04/28 04:35:55;;;;;;;5.68;3.15;;;;;;;;;;4974077;28;20077;-73
2022/04/28 04:38:21;;;;;;;4.95;3.60;;;;;;;;;;4973763;28;20140;-73
2022/04/28 04:40:47;;;;;;;5.78;3.38;;;;;;;;;;4989810;28;20076;-73
2022/04/28 04:43:14;;;;;;;3.97;3.13;;;;;;;;;;4975603;28;20034;-73
2022/04/28 04:45:42;;;;;;;7.30;3.03;;;;;;;;;;4973313;28;20047;-73
2022/04/28 04:48:12;;;;;;;4.25;3.22;;;;;;;;;;4973550;28;20373;-73
2022/04/28 04:50:39;;;;;;;4.43;3.08;;;;;;;;;;4973425;28;20045;-73
2022/04/28 04:53:06;;;;;;;3.88;2.80;;;;;;;;;;4973718;28;20027;-73
2022/04/28 04:55:42;;;;;;;5.15;3.22;;;;;;;;;;4973673;28;20036;-73
2022/04/28 04:58:08;;;;;;;4.88;2.90;;;;;;;;;;4974355;28;20377;-73
2022/04/28 05:00:35;;;;;;;7.93;3.55;;;;;;;;;;4973421;28;20512;-73
2022/04/28 05:03:01;;;;;;;6.07;2.95;;;;;;;;;;4973314;28;20025;-73
2022/04/28 05:05:27;;;;;;;5.55;3.05;;;;;;;;;;4973168;28;20500;-73
2022/04/28 05:07:54;;;;;;;6.57;3.45;;;;;;;;;;4973414;28;20019;-73
2022/04/28 05:10:20;;;;;;;5.93;3.50;;;;;;;;;;4974581;28;20043;-73
2022/04/28 05:12:46;;;;;;;5.50;3.63;;;;;;;;;;4974638;28;20431;-73
2022/04/28 05:15:13;;;;;;;4.35;3.50;;;;;;;;;;4973046;28;20027;-73
2022/04/28 05:17:39;;;;;;;4.72;3.35;;;;;;;;;;4973147;28;20033;-73
2022/04/28 05:20:07;;;;;;;5.57;3.47;;;;;;;;;;4972956;28;20054;-73
2022/04/28 05:22:33;;;;;;;7.95;3.88;;;;;;;;;;4973299;28;20011;-73
2022/04/28 05:25:00;;;;;;;5.65;2.90;;;;;;;;;;4971099;28;20026;-73
2022/04/28 05:27:26;;;;;;;6.18;3.13;;;;;;;;;;4978203;28;20022;-72
2022/04/28 05:29:53;;;;;;;7.07;3.63;;;;;;;;;;4969840;28;20031;-73
2022/04/28 05:32:19;;;;;;;5.03;3.30;;;;;;;;;;4970702;28;20031;-73
2022/04/28 05:34:46;;;;;;;8.18;3.50;;;;;;;;;;4972513;28;20033;-73
2022/04/28 05:37:12;;;;;;;7.68;3.70;;;;;;;;;;4974776;28;20015;-73
2022/04/28 05:39:40;;;;;;;6.32;2.92;;;;;;;;;;4972269;28;20386;-73
2022/04/28 05:42:07;;;;;;;12.63;3.90;;;;;;;;;;4972792;28;20027;-73
2022/04/28 05:47:20;;;;;;;5.72;3.50;;;;;;;;;;4972582;28;20061;-73
2022/04/28 05:49:47;;;;;;;6.20;3.35;;;;;;;;;;4972472;28;20037;-73
2022/04/28 05:52:13;;;;;;;6.95;4.22;;;;;;;;;;4974229;28;20019;-73
2022/04/28 05:54:40;;;;;;;4.47;3.45;;;;;;;;;;4971940;28;20030;-73
2022/04/28 05:57:06;;;;;;;7.55;3.50;;;;;;;;;;4972569;28;20025;-73
2022/04/28 05:59:33;;;;;;;4.70;3.33;;;;;;;;;;4972239;28;20019;-73
2022/04/28 06:01:59;;;;;;;5.82;3.97;;;;;;;;;;4972264;28;20045;-73
2022/04/28 06:04:25;;;;;;;8.63;3.58;;;;;;;;;;4973610;28;20354;-73
2022/04/28 06:06:52;;;;;;;7.40;4.00;;;;;;;;;;4972336;28;20518;-73
2022/04/28 06:09:18;;;;;;;4.13;3.45;;;;;;;;;;4974083;28;20028;-73
2022/04/28 06:11:44;;;;;;;7.20;3.72;;;;;;;;;;4978961;28;20492;-73
2022/04/28 06:14:11;;;;;;;5.80;3.85;;;;;;;;;;4971731;28;20103;-73
2022/04/28 06:16:37;;;;;;;7.25;3.80;;;;;;;;;;4971740;28;20030;-73
2022/04/28 06:19:03;;;;;;;6.15;3.65;;;;;;;;;;4973533;28;20436;-74
2022/04/28 06:21:30;;;;;;;6.93;3.63;;;;;;;;;;4970883;28;20039;-74
2022/04/28 06:23:56;;;;;;;5.00;3.67;;;;;;;;;;4970621;28;20019;-74
2022/04/28 06:26:22;;;;;;;4.75;3.70;;;;;;;;;;4975854;28;20023;-73
2022/04/28 06:28:49;;;;;;;8.70;4.03;;;;;;;;;;4974803;28;20029;-73
2022/04/28 06:31:15;;;;;;;7.97;3.70;;;;;;;;;;4977758;28;20033;-73
2022/04/28 06:33:41;;;;;;;6.15;3.60;;;;;;;;;;4968767;28;20408;-73
2022/04/28 06:36:08;;;;;;;6.38;3.38;;;;;;;;;;4967892;28;20027;-73
2022/04/28 06:38:34;;;;;;;6.30;3.75;;;;;;;;;;4968373;28;20027;-73
2022/04/28 06:41:01;;;;;;;5.95;3.38;;;;;;;;;;4971130;28;20415;-73
2022/04/28 06:43:27;;;;;;;5.38;3.55;;;;;;;;;;4972440;28;20110;-73
2022/04/28 06:46:12;;;;;;;6.03;3.60;;;;;;;;;;4971756;28;20423;-73
2022/04/28 06:48:39;;;;;;;7.38;3.38;;;;;;;;;;4971575;28;20496;-74
2022/04/28 06:51:05;;;;;;;5.82;2.97;;;;;;;;;;4969987;28;20039;-73
2022/04/28 06:53:31;;;;;;;8.95;3.22;;;;;;;;;;4970988;28;20031;-73
2022/04/28 06:55:58;;;;;;;7.80;3.22;;;;;;;;;;4970236;28;20027;-73
2022/04/28 06:58:24;;;;;;;4.53;3.22;;;;;;;;;;4970812;28;20088;-73
2022/04/28 07:00:50;;;;;;;8.82;2.63;;;;;;;;;;4972680;28;20041;-74
2022/04/28 07:03:18;;;;;;;2.90;2.70;;;;;;;;;;4971037;28;20457;-73
2022/04/28 07:05:44;;;;;;;4.50;2.88;;;;;;;;;;4971043;28;20085;-74
2022/04/28 07:08:10;;;;;;;4.00;2.65;;;;;;;;;;4972239;28;20027;-74
2022/04/28 07:10:38;;;;;;;6.65;2.90;;;;;;;;;;4970819;28;20042;-75
2022/04/28 07:13:04;;;;;;;5.22;3.05;;;;;;;;;;4968732;28;20027;-74
2022/04/28 07:15:31;;;;;;;9.70;3.00;;;;;;;;;;4967218;28;20031;-73
2022/04/28 07:17:57;;;;;;;7.55;2.88;;;;;;;;;;4967285;28;20022;-73
2022/04/28 07:20:24;;;;;;;5.68;3.05;;;;;;;;;;4967802;28;20500;-73
2022/04/28 07:22:50;;;;;;;4.47;2.75;;;;;;;;;;5002564;28;20033;-74
2022/04/28 07:25:17;;;;;;;6.95;3.20;;;;;;;;;;4970166;28;20484;-74
2022/04/28 07:27:43;;;;;;;5.28;3.10;;;;;;;;;;4971431;28;20029;-73
2022/04/28 07:30:10;;;;;;;9.35;3.05;;;;;;;;;;4971959;28;20039;-74
2022/04/28 07:32:36;;;;;;;4.88;3.17;;;;;;;;;;4970535;28;20098;-74
2022/04/28 07:35:03;;;;;;;9.68;3.92;;;;;;;;;;4970677;28;20034;-74
2022/04/28 07:37:30;;;;;;;6.60;3.20;;;;;;;;;;4971731;28;20025;-74
2022/04/28 07:39:56;;;;;;;7.63;3.10;;;;;;;;;;4971849;28;20033;-74
2022/04/28 07:42:22;;;;;;;6.75;3.47;;;;;;;;;;4972193;28;20015;-74
2022/04/28 07:44:49;;;;;;;6.38;3.70;;;;;;;;;;4969353;28;20045;-74
2022/04/28 07:47:17;;;;;;;4.25;3.30;;;;;;;;;;4973438;28;20040;-74
2022/04/28 07:49:43;;;;;;;3.80;2.50;;;;;;;;;;4971647;28;20019;-74
2022/04/28 07:52:09;;;;;;;4.00;2.78;;;;;;;;;;4971564;28;20046;-74
2022/04/28 07:54:36;;;;;;;9.68;2.72;;;;;;;;;;4969744;28;20033;-74
2022/04/28 07:57:02;;;;;;;3.88;2.58;;;;;;;;;;4969668;28;20414;-74
2022/04/28 07:59:29;;;;;;;4.22;2.10;;;;;;;;;;4972950;28;20018;-74
2022/04/28 08:01:56;;;;;;;4.28;2.40;;;;;;;;;;4985372;28;20405;-74
2022/04/28 08:04:22;;;;;;;5.00;2.38;;;;;;;;;;4968585;28;20014;-74
2022/04/28 08:06:48;;;;;;;3.75;2.30;;;;;;;;;;4976390;28;20033;-74
2022/04/28 08:09:15;;;;;;;4.70;2.72;;;;;;;;;;4973106;28;20021;-74
2022/04/28 08:11:42;;;;;;;8.13;2.38;;;;;;;;;;4973517;28;20034;-74
2022/04/28 08:14:08;;;;;;;3.45;2.33;;;;;;;;;;4973060;28;20033;-75
2022/04/28 08:16:34;;;;;;;7.53;2.80;;;;;;;;;;4972853;28;20479;-72
2022/04/28 08:19:02;;;;;;;6.30;2.40;;;;;;;;;;4974313;28;20031;-73
2022/04/28 08:21:29;;;;;;;5.00;2.72;;;;;;;;;;4972909;28;20023;-72
2022/04/28 08:23:55;;;;;;;4.40;2.50;;;;;;;;;;4973628;28;20030;-72
2022/04/28 08:26:22;;;;;;;4.47;2.40;;;;;;;;;;4984523;28;20483;-73
2022/04/28 08:28:48;;;;;;;5.72;2.40;;;;;;;;;;4974583;28;20038;-72
2022/04/28 08:31:14;;;;;;;3.92;2.20;;;;;;;;;;4974726;28;20035;-72
2022/04/28 08:33:41;;;;;;;2.78;2.08;;;;;;;;;;4972137;28;20034;-72
2022/04/28 08:36:07;;;;;;;4.22;2.63;;;;;;;;;;4973769;28;20026;-73
2022/04/28 08:38:33;;;;;;;5.85;2.70;;;;;;;;;;4982570;28;20035;-73
2022/04/28 08:41:01;;;;;;;4.70;2.30;;;;;;;;;;4974220;28;20030;-72
2022/04/28 08:43:29;;;;;;;2.30;2.03;;;;;;;;;;4973574;28;20029;-72
2022/04/28 08:48:51;;;;;;;5.75;2.60;;;;;;;;;;4973952;28;20498;-72
2022/04/28 08:51:19;;;;;;;4.50;2.97;;;;;;;;;;4972212;28;20035;-73
2022/04/28 08:53:47;;;;;;;5.53;3.72;;;;;;;;;;4972370;28;20025;-72
2022/04/28 08:56:13;;;;;;;5.70;3.20;;;;;;;;;;4972189;28;20030;-72
2022/04/28 08:58:40;;;;;;;6.55;2.80;;;;;;;;;;4972221;28;20041;-73
2022/04/28 09:01:06;;;;;;;8.00;3.20;;;;;;;;;;4973918;28;20037;-73
2022/04/28 09:03:33;;;;;;;5.43;2.55;;;;;;;;;;4971954;28;20034;-73
2022/04/28 09:06:15;;;;;;;4.50;3.20;;;;;;;;;;4971885;28;20019;-72
2022/04/28 09:08:42;;;;;;;5.38;3.08;;;;;;;;;;4972142;28;20030;-73
2022/04/28 09:11:18;;;;;;;14.57;3.33;;;;;;;;;;4972118;28;20037;-73
2022/04/28 09:16:34;;;;;;;;;;;;;;;;;;4971452;28;20035;-73
2022/04/28 09:19:01;;;;;;;11.23;2.45;;;;;;;;;;4976110;28;19997;-73
2022/04/28 09:21:27;;;;;;;12.43;2.83;;;;;;;;;;4971698;28;20035;-72
2022/04/28 09:23:54;;;;;;;11.52;2.60;;;;;;;;;;4969096;28;20030;-73
2022/04/28 09:26:24;;;;;;;12.73;2.88;;;;;;;;;;4968943;28;20027;-73
2022/04/28 09:28:50;;;;;;;;;;;;;;;;;;4972375;28;20035;-72
2022/04/28 09:31:18;;;;;;;10.63;2.75;;;;;;;;;;4983728;28;19960;-73
2022/04/28 09:33:48;;;;;;;4.28;1.52;;;;;;;;;;4968679;28;20034;-73
2022/04/28 09:36:14;;;;;;;;;;;;;;;;;;4971348;28;20439;-72
2022/04/28 09:38:41;;;;;;;3.58;1.70;;;;;;;;;;4991956;28;19920;-73
2022/04/28 09:43:57;;;;;;;4.65;1.40;;;;;;;;;;4971607;28;20490;-73
2022/04/28 09:46:23;;;;;;;1.70;1.50;;;;;;;;;;4972359;28;20419;-72
2022/04/28 09:48:51;;;;;;;6.15;1.40;;;;;;;;;;4968408;28;20043;-73
2022/04/28 09:51:22;;;;;;;2.47;1.40;;;;;;;;;;4984450;28;20396;-72
2022/04/28 09:53:48;;;;;;;2.80;1.40;;;;;;;;;;4963472;28;20538;-73
2022/04/28 09:56:18;;;;;;;3.55;1.58;;;;;;;;;;4971218;28;20030;-73
2022/04/28 09:58:44;;;;;;;;;;;;;;;;;;4971195;28;20557;-71
2022/04/28 10:01:11;;;;;;;4.40;1.30;;;;;;;;;;4972256;28;19924;-72
2022/04/28 10:03:40;;;;;;;1.98;1.50;;;;;;;;;;4969974;28;20631;-73
2022/04/28 10:06:07;;;;;;;3.22;1.30;;;;;;;;;;4970365;28;20041;-73
2022/04/28 10:08:34;;;;;;;3.63;1.35;;;;;;;;;;4969710;28;20018;-73
2022/04/28 10:11:01;;;;;;;1.90;1.23;;;;;;;;;;4971044;28;20031;-74
2022/04/28 10:13:31;;;;;;;1.70;1.13;;;;;;;;;;4971040;28;20072;-73
2022/04/28 10:16:02;;;;;;;4.10;1.20;;;;;;;;;;4971458;28;20332;-73
2022/04/28 10:18:38;;;;;;;2.50;1.17;;;;;;;;;;4968118;28;20039;-73
2022/04/28 10:21:05;;;;;;;1.33;1.05;;;;;;;;;;4967796;28;20406;-73
2022/04/28 10:34:54;;;;;;;2.20;1.10;;;;;;;;;;4970079;28;20023;-73
2022/04/28 10:37:24;;;;;;;1.35;1.08;;;;;;;;;;4979729;28;20038;-73
2022/04/28 10:39:55;;;;;;;4.47;1.20;;;;;;;;;;4969002;28;20035;-73
2022/04/28 10:42:45;;;;;;;2.92;1.00;;;;;;;;;;4970074;28;20484;-73
2022/04/28 10:45:11;;;;;;;;;;;;;;;;;;4970539;28;20045;-73
2022/04/28 10:47:41;;;;;;;2.25;1.33;;;;;;;;;;4970364;28;19916;-73
2022/04/28 10:50:23;;;;;;;1.45;1.20;;;;;;;;;;4970679;28;20395;-73
2022/04/28 10:53:02;;;;;;;2.42;1.23;;;;;;;;;;4986899;28;20041;-74
2022/04/28 10:55:30;;;;;;;;;;;;;;;;;;4968950;28;20034;-73
2022/04/28 10:57:56;;;;;;;2.50;1.05;;;;;;;;;;4967652;28;19914;-73
2022/04/28 11:00:35;;;;;;;2.88;1.15;;;;;;;;;;4966689;28;20391;-73
2022/04/28 11:03:02;;;;;;;2.80;1.25;;;;;;;;;;4966695;28;20019;-74
2022/04/28 11:05:31;;;;;;;1.10;1.00;;;;;;;;;;4967158;28;20023;-73
2022/04/28 11:07:59;;;;;;;1.98;0.90;;;;;;;;;;4970848;28;20025;-73
2022/04/28 11:10:27;;;;;;;1.10;1.00;;;;;;;;;;4968779;28;20483;-74
2022/04/28 11:12:54;;;;;;;3.13;1.00;;;;;;;;;;4967089;28;20408;-73
2022/04/28 11:15:21;;;;;;;3.05;1.10;;;;;;;;;;4967021;28;20056;-73
2022/04/28 11:17:47;;;;;;;4.05;1.15;;;;;;;;;;4967026;28;20383;-73
2022/04/28 11:20:15;;;;;;;1.35;1.20;;;;;;;;;;4968632;28;20033;-74
2022/04/28 11:22:42;;;;;;;1.50;1.10;;;;;;;;;;4970034;28;20045;-73
2022/04/28 11:25:12;;;;;;;1.73;1.10;;;;;;;;;;4967605;28;20033;-74
2022/04/28 11:27:39;;;;;;;2.85;1.05;;;;;;;;;;4969409;28;20031;-73
2022/04/28 11:30:06;;;;;;;1.90;1.08;;;;;;;;;;4969841;28;20019;-73
2022/04/28 11:32:32;;;;;;;2.17;0.95;;;;;;;;;;4969926;28;20027;-73
2022/04/28 11:34:59;;;;;;;1.05;0.90;;;;;;;;;;4970024;28;20029;-73
2022/04/28 11:37:26;;;;;;;1.42;1.02;;;;;;;;;;4972505;28;20019;-74
2022/04/28 11:39:53;;;;;;;2.42;1.17;;;;;;;;;;4970470;28;20031;-73
2022/04/28 11:42:21;;;;;;;1.65;1.15;;;;;;;;;;4966936;28;20031;-74
2022/04/28 11:44:47;;;;;;;2.63;1.30;;;;;;;;;;4970267;28;20053;-73
2022/04/28 11:47:14;;;;;;;2.78;1.00;;;;;;;;;;4974000;28;20054;-73
2022/04/28 11:49:41;;;;;;;3.95;1.20;;;;;;;;;;4976064;28;20026;-73
2022/04/28 11:52:37;;;;;;;2.38;1.30;;;;;;;;;;4978612;28;20476;-73
2022/04/28 11:55:05;;;;;;;1.63;0.95;;;;;;;;;;4980626;28;20146;-73
2022/04/28 11:57:32;;;;;;;1.48;1.05;;;;;;;;;;4973346;28;20031;-73
2022/04/28 11:59:59;;;;;;;1.95;1.10;;;;;;;;;;4972952;28;20514;-73
2022/04/28 12:02:35;;;;;;;2.58;1.10;;;;;;;;;;4973347;28;20034;-73
2022/04/28 12:05:03;;;;;;;3.30;1.30;;;;;;;;;;4981401;28;20084;-72
2022/04/28 12:07:31;;;;;;;2.75;1.20;;;;;;;;;;4989420;28;20031;-72
2022/04/28 12:15:29;;;;;;;3.03;1.20;;;;;;;;;;4974138;28;20037;-73
2022/04/28 12:20:51;;;;;;;12.77;1.65;;;;;;;;;;4963901;28;20534;-73
2022/04/28 12:23:34;;;;;;;5.25;1.17;;;;;;;;;;4972613;28;20025;-73
2022/04/28 12:26:06;;;;;;;5.22;1.40;;;;;;;;;;4962790;28;20031;-73
2022/04/28 12:28:33;;;;;;;4.72;1.40;;;;;;;;;;4973466;28;20029;-73
2022/04/28 12:31:02;;;;;;;5.43;1.58;;;;;;;;;;4973234;28;20037;-73
2022/04/28 12:33:29;;;;;;;7.00;1.75;;;;;;;;;;4972179;28;20011;-73
2022/04/28 12:35:59;;;;;;;4.32;1.63;;;;;;;;;;4970336;28;20085;-73
2022/04/28 12:38:28;;;;;;;;;;;;;;;;;;4961896;28;20029;-73
2022/04/28 12:40:55;;;;;;;6.55;1.60;;;;;;;;;;4981011;28;20362;-74
2022/04/28 12:43:49;;;;;;;6.72;1.42;;;;;;;;;;4970651;28;20019;-73
2022/04/28 12:46:18;;;;;;;5.20;1.38;;;;;;;;;;4968321;28;20057;-73
2022/04/28 12:48:52;;;;;;;9.10;1.67;;;;;;;;;;4980238;28;20034;-73
2022/04/28 12:51:20;;;;;;;6.20;1.50;;;;;;;;;;4972990;28;20049;-74
2022/04/28 12:53:48;;;;;;;5.65;1.65;;;;;;;;;;4972010;28;20019;-73
2022/04/28 12:56:33;;;;;;;2.85;1.20;;;;;;;;;;4970373;28;20522;-73
2022/04/28 12:59:00;;;;;;;6.75;1.48;;;;;;;;;;4987133;28;20429;-75
2022/04/28 13:01:28;;;;;;;3.05;1.40;;;;;;;;;;4972939;28;20039;-75
2022/04/28 13:04:07;;;;;;;7.68;1.58;;;;;;;;;;4974241;28;20034;-75
2022/04/28 13:06:35;;;;;;;7.47;1.35;;;;;;;;;;4980324;28;20027;-75
2022/04/28 13:09:03;;;;;;;5.07;1.48;;;;;;;;;;4974144;28;20033;-75
2022/04/28 13:11:30;;;;;;;7.03;2.10;;;;;;;;;;4975226;28;20023;-75
2022/04/28 13:13:57;;;;;;;8.10;2.03;;;;;;;;;;4972085;28;20027;-75
2022/04/28 13:16:24;;;;;;;4.22;1.58;;;;;;;;;;4973885;28;20037;-74
2022/04/28 13:18:51;;;;;;;4.22;1.30;;;;;;;;;;4978190;28;20030;-75
2022/04/28 13:21:18;;;;;;;5.82;1.30;;;;;;;;;;4972627;28;20023;-73
2022/04/28 13:23:45;;;;;;;4.63;1.70;;;;;;;;;;4971495;28;20026;-75
2022/04/28 13:26:12;;;;;;;3.38;1.48;;;;;;;;;;4972069;28;20023;-74
2022/04/28 13:28:39;;;;;;;3.13;1.38;;;;;;;;;;4971594;28;20112;-75
2022/04/28 13:31:05;;;;;;;5.60;1.60;;;;;;;;;;4973563;28;20037;-75
2022/04/28 13:33:32;;;;;;;6.95;1.30;;;;;;;;;;4971354;28;20085;-75
2022/04/28 13:35:59;;;;;;;2.95;1.10;;;;;;;;;;4971873;28;20022;-75
2022/04/28 13:38:26;;;;;;;3.40;1.23;;;;;;;;;;4978985;28;20023;-74
2022/04/28 13:40:52;;;;;;;6.22;1.27;;;;;;;;;;4986344;28;20039;-74
2022/04/28 13:43:18;;;;;;;6.43;1.67;;;;;;;;;;4971994;28;20037;-74
2022/04/28 13:45:45;;;;;;;4.45;1.20;;;;;;;;;;4972320;28;20526;-74
2022/04/28 13:48:11;;;;;;;5.22;1.27;;;;;;;;;;4971223;28;20027;-75
2022/04/28 13:50:38;;;;;;;4.20;1.38;;;;;;;;;;4971373;28;20037;-75
2022/04/28 13:53:05;;;;;;;6.07;1.70;;;;;;;;;;4971032;28;20033;-74
2022/04/28 13:55:32;;;;;;;6.20;1.52;;;;;;;;;;4981463;28;20448;-74
2022/04/28 13:57:59;;;;;;;7.13;2.00;;;;;;;;;;4968621;28;20447;-74
2022/04/28 14:00:25;;;;;;;6.07;1.50;;;;;;;;;;4967597;28;20515;-74
2022/04/28 14:02:52;;;;;;;5.90;1.70;;;;;;;;;;4972448;28;20382;-74
2022/04/28 14:05:18;;;;;;;6.57;1.50;;;;;;;;;;4968483;28;20045;-73
2022/04/28 14:07:45;;;;;;;5.90;1.55;;;;;;;;;;4995321;28;20669;-74
2022/04/28 14:10:12;;;;;;;3.47;1.30;;;;;;;;;;4972704;28;20030;-74
2022/04/28 14:12:39;;;;;;;6.50;1.70;;;;;;;;;;4970505;28;20034;-74
2022/04/28 14:15:10;;;;;;;4.50;1.40;;;;;;;;;;4971163;28;20027;-74
2022/04/28 14:17:37;;;;;;;3.75;1.30;;;;;;;;;;4971543;28;20037;-74
2022/04/28 14:20:04;;;;;;;3.10;1.40;;;;;;;;;;4978713;28;20027;-75
2022/04/28 14:22:30;;;;;;;5.45;1.48;;;;;;;;;;4969729;28;20561;-75
2022/04/28 14:24:57;;;;;;;6.78;1.50;;;;;;;;;;4968756;28;20038;-74
2022/04/28 14:27:23;;;;;;;3.80;1.42;;;;;;;;;;4968387;28;20044;-75
2022/04/28 14:29:50;;;;;;;6.07;1.48;;;;;;;;;;4967732;28;20019;-74
2022/04/28 14:32:16;;;;;;;6.15;1.40;;;;;;;;;;4969398;28;20416;-75
2022/04/28 14:34:42;;;;;;;3.72;1.48;;;;;;;;;;4971391;28;20034;-75
2022/04/28 14:37:09;;;;;;;6.32;1.60;;;;;;;;;;4969064;28;20033;-75
2022/04/28 14:39:35;;;;;;;4.97;1.55;;;;;;;;;;4968113;28;20027;-75
2022/04/28 14:42:03;;;;;;;9.68;1.30;;;;;;;;;;4970407;28;20407;-75
2022/04/28 14:44:30;;;;;;;3.55;1.17;;;;;;;;;;4968111;28;20500;-75
2022/04/28 14:46:57;;;;;;;4.57;1.35;;;;;;;;;;4972147;28;20031;-75
2022/04/28 14:52:20;;;;;;;3.58;1.58;;;;;;;;;;4967928;28;20049;-74
2022/04/28 14:54:47;;;;;;;2.63;1.10;;;;;;;;;;4967105;28;20027;-75
2022/04/28 14:57:13;;;;;;;4.60;1.10;;;;;;;;;;4971811;28;20034;-74
2022/04/28 14:59:40;;;;;;;4.25;1.23;;;;;;;;;;4971069;28;20039;-74
2022/04/28 15:02:06;;;;;;;3.78;1.40;;;;;;;;;;4969980;28;20029;-74
2022/04/28 15:04:33;;;;;;;3.38;1.15;;;;;;;;;;4969934;28;20029;-75
2022/04/28 15:06:59;;;;;;;5.20;1.05;;;;;;;;;;4968362;28;20385;-73
2022/04/28 15:09:26;;;;;;;3.95;1.17;;;;;;;;;;4973212;28;21625;-75
2022/04/28 15:11:53;;;;;;;4.15;1.20;;;;;;;;;;4975595;28;20015;-74
2022/04/28 15:14:20;;;;;;;7.97;1.10;;;;;;;;;;4970725;28;20077;-75
2022/04/28 15:16:46;;;;;;;4.95;1.40;;;;;;;;;;4971529;28;20415;-75
2022/04/28 15:19:12;;;;;;;2.58;1.10;;;;;;;;;;4972060;28;20027;-74
2022/04/28 15:21:41;;;;;;;3.33;1.45;;;;;;;;;;4970834;28;20377;-75
2022/04/28 15:24:08;;;;;;;3.33;1.40;;;;;;;;;;4970347;28;20026;-74
2022/04/28 15:26:35;;;;;;;6.30;1.20;;;;;;;;;;4968004;28;20038;-74
2022/04/28 15:29:01;;;;;;;3.38;1.20;;;;;;;;;;4971590;28;20026;-74
2022/04/28 15:31:38;;;;;;;4.40;1.17;;;;;;;;;;4969184;28;20072;-74
2022/04/28 15:34:05;;;;;;;4.47;1.45;;;;;;;;;;4972304;28;20030;-74